createdAt,value
2022-11-04T00:01:52.990Z,6.93
2022-11-04T00:04:20.991Z,7.20
2022-11-04T00:06:47.758Z,5.82
2022-11-04T00:09:20.238Z,7.88
2022-11-04T00:12:05.737Z,6.43
2022-11-04T00:14:33.436Z,7.15
2022-11-04T00:17:18.969Z,6.68
2022-11-04T00:20:04.988Z,7.43
2022-11-04T00:22:49.971Z,8.60
2022-11-04T00:25:35.182Z,6.80
2022-11-04T00:28:33.487Z,8.93
2022-11-04T00:31:20.023Z,8.07
2022-11-04T00:33:47.308Z,8.45
2022-11-04T00:36:13.774Z,8.30
2022-11-04T00:38:40.350Z,10.65
2022-11-04T00:41:25.813Z,6.43
2022-11-04T00:43:53.418Z,7.97
2022-11-04T00:46:20.072Z,6.65
2022-11-04T00:48:46.465Z,5.97
2022-11-04T00:53:40.236Z,6.32
2022-11-04T00:56:06.724Z,6.38
2022-11-04T00:58:33.111Z,5.70
2022-11-04T01:00:59.570Z,6.22
2022-11-04T01:03:25.998Z,7.95
2022-11-04T01:05:52.351Z,6.22
2022-11-04T01:08:18.749Z,7.00
2022-11-04T01:10:45.116Z,5.97
2022-11-04T01:13:11.719Z,5.82
2022-11-04T01:15:38.496Z,6.50
2022-11-04T01:18:06.021Z,5.70
2022-11-04T01:20:33.579Z,7.18
2022-11-04T01:22:59.989Z,5.13
2022-11-04T01:25:26.443Z,4.82
2022-11-04T01:27:52.810Z,4.95
2022-11-04T01:30:19.438Z,6.22
2022-11-04T01:32:45.794Z,6.35
2022-11-04T01:35:12.278Z,6.68
2022-11-04T01:37:38.656Z,5.20
2022-11-04T01:40:05.548Z,5.57
2022-11-04T01:42:31.897Z,5.70
2022-11-04T01:44:59.697Z,5.03
2022-11-04T01:47:36.288Z,4.40
2022-11-04T01:50:12.233Z,5.40
2022-11-04T01:52:47.282Z,4.63
2022-11-04T01:55:17.625Z,6.28
2022-11-04T01:57:46.540Z,3.72
2022-11-04T02:00:13.731Z,4.03
2022-11-04T02:03:20.618Z,2.83
2022-11-04T02:05:47.806Z,2.40
2022-11-04T02:08:15.799Z,2.45
2022-11-04T02:10:52.607Z,5.15
2022-11-04T02:13:19.037Z,2.45
2022-11-04T02:16:02.187Z,3.70
2022-11-04T02:18:49.494Z,3.22
2022-11-04T02:21:37.775Z,3.15
2022-11-04T02:24:18.891Z,3.63
2022-11-04T02:27:07.321Z,4.78
2022-11-04T02:29:57.866Z,2.45
2022-11-04T02:32:34.578Z,3.60
2022-11-04T02:35:20.825Z,4.07
2022-11-04T02:38:02.357Z,3.35
2022-11-04T02:41:06.433Z,3.83
2022-11-04T02:43:45.426Z,4.10
2022-11-04T02:46:19.697Z,4.47
2022-11-04T02:48:49.172Z,5.97
2022-11-04T02:51:26.971Z,5.78
2022-11-04T02:54:04.137Z,6.85
2022-11-04T02:56:31.353Z,8.25
2022-11-04T02:59:03.107Z,7.72
2022-11-04T03:01:34.500Z,7.80
2022-11-04T03:04:09.778Z,8.02
2022-11-04T03:06:36.664Z,8.82
2022-11-04T03:09:04.105Z,8.95
2022-11-04T03:11:31.036Z,9.50
2022-11-04T03:13:58.809Z,9.98
2022-11-04T03:16:37.941Z,9.43
2022-11-04T03:19:24.222Z,9.43
2022-11-04T03:21:57.823Z,9.43
2022-11-04T03:24:24.603Z,9.05
2022-11-04T03:27:00.830Z,9.80
2022-11-04T03:29:32.234Z,9.15
2022-11-04T03:32:08.990Z,8.75
2022-11-04T03:34:36.797Z,8.48
2022-11-04T03:37:03.426Z,9.27
2022-11-04T03:39:30.187Z,9.45
2022-11-04T03:41:59.247Z,9.07
2022-11-04T03:44:26.071Z,10.27
2022-11-04T03:46:53.687Z,10.15
2022-11-04T03:49:22.449Z,9.63
2022-11-04T03:51:49.943Z,10.10
2022-11-04T03:54:16.650Z,9.57
2022-11-04T03:56:57.757Z,9.30
2022-11-04T03:59:37.235Z,9.90
2022-11-04T04:02:16.997Z,10.52
2022-11-04T04:04:57.364Z,10.35
2022-11-04T04:07:34.226Z,11.13
2022-11-04T04:10:36.325Z,14.43
2022-11-04T04:13:07.999Z,11.60
2022-11-04T04:15:49.036Z,12.23
2022-11-04T04:18:17.596Z,13.02
2022-11-04T04:20:47.691Z,12.80
2022-11-04T04:23:37.277Z,13.77
2022-11-04T04:26:23.893Z,14.38
2022-11-04T04:28:52.221Z,13.23
2022-11-04T04:31:38.748Z,13.48
2022-11-04T04:34:05.821Z,14.20
2022-11-04T04:36:34.515Z,14.52
2022-11-04T04:39:23.703Z,16.15
2022-11-04T04:42:08.592Z,12.80
2022-11-04T04:44:53.568Z,15.68
2022-11-04T04:47:22.830Z,15.00
2022-11-04T04:49:50.746Z,13.85
2022-11-04T04:52:17.408Z,14.15
2022-11-04T04:54:44.950Z,13.75
2022-11-04T04:57:11.893Z,13.70
2022-11-04T04:59:38.256Z,12.07
2022-11-04T05:02:04.823Z,12.25
2022-11-04T05:04:31.275Z,12.13
2022-11-04T05:06:57.672Z,12.77
2022-11-04T05:09:24.092Z,12.98
2022-11-04T05:11:50.531Z,13.90
2022-11-04T05:14:16.981Z,16.17
2022-11-04T05:16:43.372Z,16.08
2022-11-04T05:19:09.829Z,13.73
2022-11-04T05:21:36.321Z,16.55
2022-11-04T05:24:02.802Z,15.13
2022-11-04T05:26:29.495Z,14.30
2022-11-04T05:28:55.892Z,15.02
2022-11-04T05:31:22.455Z,16.40
2022-11-04T05:33:48.838Z,14.77
2022-11-04T05:36:16.323Z,13.30
2022-11-04T05:38:43.215Z,13.90
2022-11-04T05:41:11.582Z,13.32
2022-11-04T05:43:38.031Z,13.85
2022-11-04T05:46:04.491Z,14.32
2022-11-04T05:48:30.874Z,13.55
2022-11-04T05:50:57.354Z,15.30
2022-11-04T05:53:23.756Z,14.65
2022-11-04T05:55:50.184Z,14.05
2022-11-04T05:58:16.588Z,10.68
2022-11-04T06:00:43.068Z,11.43
2022-11-04T06:03:12.066Z,10.45
2022-11-04T06:05:41.735Z,11.70
2022-11-04T06:08:08.503Z,10.63
2022-11-04T06:10:35.238Z,12.25
2022-11-04T06:13:01.721Z,11.05
2022-11-04T06:15:28.126Z,11.23
2022-11-04T06:17:54.533Z,9.15
2022-11-04T06:20:20.931Z,11.55
2022-11-04T06:22:47.386Z,12.73
2022-11-04T06:25:13.803Z,10.95
2022-11-04T06:27:40.199Z,12.00
2022-11-04T06:30:07.401Z,14.05
2022-11-04T06:32:33.764Z,11.05
2022-11-04T06:35:00.118Z,10.75
2022-11-04T06:37:26.557Z,10.27
2022-11-04T06:39:52.952Z,9.90
2022-11-04T06:42:19.402Z,12.50
2022-11-04T06:44:45.805Z,14.02
2022-11-04T06:47:12.208Z,12.02
2022-11-04T06:49:38.678Z,12.45
2022-11-04T06:52:05.086Z,13.85
2022-11-04T06:54:31.540Z,16.90
2022-11-04T06:56:57.933Z,13.55
2022-11-04T06:59:24.355Z,15.48
2022-11-04T07:01:51.949Z,16.65
2022-11-04T07:04:18.572Z,17.90
2022-11-04T07:06:45.249Z,16.92
2022-11-04T07:09:13.293Z,14.38
2022-11-04T07:11:40.165Z,16.15
2022-11-04T07:14:06.929Z,14.10
2022-11-04T07:16:34.498Z,15.95
2022-11-04T07:19:00.935Z,17.15
2022-11-04T07:21:27.392Z,16.23
2022-11-04T07:23:53.854Z,21.02
2022-11-04T07:26:20.263Z,18.33
2022-11-04T07:28:46.687Z,15.20
2022-11-04T07:31:13.751Z,13.48
2022-11-04T07:33:40.237Z,15.38
2022-11-04T07:36:10.268Z,14.13
2022-11-04T07:38:36.681Z,17.08
2022-11-04T07:41:03.144Z,18.75
2022-11-04T07:43:30.377Z,14.45
2022-11-04T07:46:00.849Z,16.13
2022-11-04T07:48:27.526Z,15.98
2022-11-04T07:50:59.508Z,14.20
2022-11-04T07:53:26.881Z,13.15
2022-11-04T07:55:53.318Z,15.10
2022-11-04T07:58:20.266Z,16.83
2022-11-04T08:00:46.795Z,16.50
2022-11-04T08:03:13.572Z,14.20
2022-11-04T08:05:40.367Z,13.82
2022-11-04T08:08:06.784Z,17.20
2022-11-04T08:10:33.608Z,16.15
2022-11-04T08:13:00.017Z,19.98
2022-11-04T08:15:26.406Z,19.88
2022-11-04T08:17:52.853Z,14.82
2022-11-04T08:20:19.281Z,14.57
2022-11-04T08:22:45.664Z,16.45
2022-11-04T08:25:13.537Z,18.65
2022-11-04T08:27:40.070Z,16.25
2022-11-04T08:30:07.044Z,17.48
2022-11-04T08:32:33.442Z,13.93
2022-11-04T08:34:59.826Z,16.10
2022-11-04T08:37:26.238Z,15.90
2022-11-04T08:39:52.643Z,13.98
2022-11-04T08:42:19.012Z,12.60
2022-11-04T08:44:45.463Z,11.40
2022-11-04T08:47:11.953Z,14.70
2022-11-04T08:49:41.950Z,11.32
2022-11-04T08:52:09.997Z,10.18
2022-11-04T08:54:36.399Z,11.55
2022-11-04T08:57:03.194Z,12.70
2022-11-04T08:59:29.630Z,10.82
2022-11-04T09:01:56.149Z,10.95
2022-11-04T09:04:23.157Z,9.18
2022-11-04T09:06:50.930Z,13.25
2022-11-04T09:09:17.805Z,13.65
2022-11-04T09:11:44.725Z,8.20
2022-11-04T09:14:11.447Z,11.10
2022-11-04T09:16:38.941Z,12.00
2022-11-04T09:19:05.390Z,13.48
2022-11-04T09:21:31.875Z,13.13
2022-11-04T09:23:58.362Z,9.85
2022-11-04T09:26:25.618Z,9.75
2022-11-04T09:28:55.830Z,12.27
2022-11-04T09:31:22.833Z,11.25
2022-11-04T09:33:50.322Z,7.40
2022-11-04T09:36:16.727Z,9.27
2022-11-04T09:38:43.612Z,11.60
2022-11-04T09:41:24.993Z,7.22
2022-11-04T09:44:02.085Z,11.10
2022-11-04T09:46:31.077Z,9.73
2022-11-04T09:48:58.197Z,9.40
2022-11-04T09:51:52.380Z,11.82
2022-11-04T09:54:20.864Z,9.98
2022-11-04T09:56:51.186Z,9.50
2022-11-04T09:59:26.025Z,7.55
2022-11-04T10:02:22.288Z,10.73
2022-11-04T10:05:10.004Z,8.50
2022-11-04T10:07:51.607Z,7.20
2022-11-04T10:10:31.184Z,8.32
2022-11-04T10:13:22.224Z,9.43
2022-11-04T10:16:26.320Z,9.13
2022-11-04T10:18:55.692Z,8.52
2022-11-04T10:21:54.971Z,8.90
2022-11-04T10:24:35.795Z,9.80
2022-11-04T10:27:12.285Z,11.18
2022-11-04T10:29:43.752Z,5.85
2022-11-04T10:32:20.979Z,8.43
2022-11-04T10:34:58.626Z,7.82
2022-11-04T10:37:25.569Z,8.95
2022-11-04T10:39:53.829Z,7.25
2022-11-04T10:42:22.176Z,7.45
2022-11-04T10:44:50.421Z,5.78
2022-11-04T10:47:20.968Z,4.38
2022-11-04T10:50:29.027Z,11.05
2022-11-04T10:53:15.879Z,8.95
2022-11-04T10:56:12.730Z,6.60
2022-11-04T10:58:46.878Z,6.20
2022-11-04T11:01:28.164Z,8.30
2022-11-04T11:03:55.250Z,6.88
2022-11-04T11:06:28.306Z,7.97
2022-11-04T11:08:57.902Z,13.60
2022-11-04T11:11:42.957Z,11.45
2022-11-04T11:14:29.065Z,7.90
2022-11-04T11:16:56.408Z,6.68
2022-11-04T11:19:25.082Z,9.25
2022-11-04T11:21:56.645Z,8.18
2022-11-04T11:24:27.852Z,8.18
2022-11-04T11:26:57.002Z,7.80
2022-11-04T11:29:27.397Z,6.10
2022-11-04T11:31:55.414Z,6.90
2022-11-04T11:34:31.831Z,7.00
2022-11-04T11:36:59.085Z,7.68
2022-11-04T11:39:30.878Z,8.55
2022-11-04T11:42:00.646Z,8.75
2022-11-04T11:44:32.561Z,8.70
2022-11-04T11:47:02.242Z,8.90
2022-11-04T11:49:35.763Z,7.00
2022-11-04T11:52:27.137Z,6.55
2022-11-04T11:54:58.623Z,8.32
2022-11-04T11:57:32.744Z,8.77
2022-11-04T12:03:01.036Z,10.45
2022-11-04T12:11:28.812Z,9.40
2022-11-04T12:13:57.073Z,8.07
2022-11-04T12:16:29.780Z,8.10
2022-11-04T12:19:29.486Z,7.57
2022-11-04T12:22:05.032Z,5.88
2022-11-04T12:24:36.911Z,5.68
2022-11-04T12:27:07.771Z,8.02
2022-11-04T12:29:57.066Z,5.85
2022-11-04T12:32:29.527Z,6.25
2022-11-04T12:35:04.352Z,6.75
2022-11-04T12:37:52.610Z,8.90
2022-11-04T12:40:41.542Z,5.65
2022-11-04T12:43:24.403Z,7.65
2022-11-04T12:45:57.486Z,8.07
2022-11-04T12:48:42.959Z,7.88
2022-11-04T12:51:22.401Z,8.60
2022-11-04T12:53:59.311Z,9.15
2022-11-04T12:56:37.388Z,9.13
2022-11-04T12:59:41.577Z,10.10
2022-11-04T13:02:22.264Z,6.40
2022-11-04T13:05:03.693Z,6.43
2022-11-04T13:07:36.242Z,4.07
2022-11-04T13:12:38.357Z,6.50
2022-11-04T13:15:16.476Z,5.80
2022-11-04T13:17:44.072Z,4.80
2022-11-04T13:20:21.364Z,6.75
2022-11-04T13:22:50.050Z,6.93
2022-11-04T13:25:23.357Z,7.13
2022-11-04T13:27:50.164Z,5.25
2022-11-04T13:30:23.580Z,5.55
2022-11-04T13:33:03.239Z,7.75
2022-11-04T13:35:38.246Z,4.93
2022-11-04T13:38:12.554Z,7.22
2022-11-04T13:40:45.091Z,4.65
2022-11-04T13:46:10.501Z,7.35
2022-11-04T13:48:40.520Z,5.38
2022-11-04T13:51:07.717Z,4.63
2022-11-04T13:53:46.298Z,5.32
2022-11-04T13:56:35.892Z,5.32
2022-11-04T13:59:08.428Z,6.13
2022-11-04T14:04:13.523Z,5.00
2022-11-04T14:07:03.855Z,4.22
2022-11-04T14:09:33.718Z,3.80
2022-11-04T14:12:17.381Z,4.72
2022-11-04T14:14:46.786Z,7.70
2022-11-04T14:17:35.141Z,4.13
2022-11-04T14:20:22.997Z,5.72
2022-11-04T14:22:56.910Z,5.38
2022-11-04T14:25:38.375Z,5.80
2022-11-04T14:28:11.031Z,6.15
2022-11-04T14:30:51.215Z,3.72
2022-11-04T14:33:25.082Z,6.18
2022-11-04T14:35:53.733Z,4.00
2022-11-04T14:38:25.950Z,7.47
2022-11-04T14:41:12.552Z,4.20
2022-11-04T14:43:41.908Z,4.47
2022-11-04T14:46:08.702Z,4.70
2022-11-04T14:48:35.354Z,7.40
2022-11-04T14:51:01.864Z,6.05
2022-11-04T14:53:33.551Z,7.00
2022-11-04T14:56:24.198Z,5.97
2022-11-04T14:59:03.197Z,4.53
2022-11-04T15:01:34.932Z,5.13
2022-11-04T15:04:15.022Z,6.55
2022-11-04T15:06:54.907Z,5.18
2022-11-04T15:09:28.401Z,5.65
2022-11-04T15:12:22.602Z,6.28
2022-11-04T15:14:49.015Z,5.70
2022-11-04T15:17:18.485Z,4.88
2022-11-04T15:19:49.485Z,6.05
2022-11-04T15:22:15.883Z,6.25
2022-11-04T15:24:43.694Z,7.22
2022-11-04T15:27:13.728Z,5.97
2022-11-04T15:29:40.150Z,6.70
2022-11-04T15:32:06.661Z,6.53
2022-11-04T15:34:33.810Z,7.05
2022-11-04T15:37:04.236Z,5.90
2022-11-04T15:39:33.922Z,5.57
2022-11-04T15:42:25.070Z,8.90
2022-11-04T15:44:53.386Z,11.48
2022-11-04T15:47:22.590Z,7.63
2022-11-04T15:49:53.418Z,5.55
2022-11-04T15:52:25.117Z,5.93
2022-11-04T15:54:53.308Z,7.57
2022-11-04T15:57:23.870Z,7.20
2022-11-04T16:00:07.050Z,7.03
2022-11-04T16:02:46.889Z,7.18
2022-11-04T16:05:16.322Z,8.50
2022-11-04T16:07:51.281Z,7.70
2022-11-04T16:10:24.862Z,14.00
2022-11-04T16:13:13.977Z,10.38
2022-11-04T16:15:46.856Z,6.80
2022-11-04T16:18:36.272Z,6.55
2022-11-04T16:21:09.984Z,5.97
2022-11-04T16:23:48.321Z,10.38
2022-11-04T16:26:14.820Z,8.98
2022-11-04T16:28:42.299Z,9.45
2022-11-04T16:31:24.321Z,12.75
2022-11-04T16:33:51.109Z,11.55
2022-11-04T16:36:23.606Z,7.95
2022-11-04T16:41:24.190Z,9.38
2022-11-04T16:43:51.000Z,8.40
2022-11-04T16:46:18.117Z,8.38
2022-11-04T16:48:45.144Z,9.45
2022-11-04T16:51:20.153Z,14.82
2022-11-04T16:53:51.494Z,10.18
2022-11-04T16:56:20.844Z,13.18
2022-11-04T16:58:47.280Z,11.02
2022-11-04T17:01:14.679Z,13.35
2022-11-04T17:03:43.157Z,11.65
2022-11-04T17:06:12.163Z,8.60
2022-11-04T17:08:38.749Z,11.23
2022-11-04T17:11:05.866Z,8.80
2022-11-04T17:13:36.355Z,10.55
2022-11-04T17:16:04.430Z,10.43
2022-11-04T17:18:31.769Z,12.43
2022-11-04T17:20:58.793Z,10.10
2022-11-04T17:23:25.238Z,11.30
2022-11-04T17:25:51.937Z,13.73
2022-11-04T17:28:18.309Z,10.57
2022-11-04T17:30:44.786Z,11.38
2022-11-04T17:33:18.871Z,9.35
2022-11-04T17:35:51.260Z,11.90
2022-11-04T17:38:18.388Z,11.35
2022-11-04T17:41:03.405Z,10.50
2022-11-04T17:43:48.419Z,15.93
2022-11-04T17:46:34.044Z,13.25
2022-11-04T17:49:21.388Z,12.48
2022-11-04T17:51:50.162Z,16.13
2022-11-04T17:54:16.715Z,18.70
2022-11-04T17:56:43.198Z,17.23
2022-11-04T17:59:10.643Z,19.90
2022-11-04T18:01:37.509Z,12.48
2022-11-04T18:04:04.171Z,12.30
2022-11-04T18:06:32.143Z,12.60
2022-11-04T18:08:59.144Z,14.95
2022-11-04T18:11:45.692Z,14.65
2022-11-04T18:14:16.637Z,15.82
2022-11-04T18:16:45.895Z,16.80
2022-11-04T18:19:12.452Z,14.32
2022-11-04T18:21:38.952Z,15.77
2022-11-04T18:24:05.578Z,14.25
2022-11-04T18:26:31.952Z,12.95
2022-11-04T18:28:58.341Z,12.60
2022-11-04T18:31:30.541Z,15.32
2022-11-04T18:34:01.718Z,10.93
2022-11-04T18:36:29.018Z,15.50
2022-11-04T18:38:55.744Z,15.23
2022-11-04T18:41:22.560Z,12.15
2022-11-04T18:43:48.932Z,15.63
2022-11-04T18:46:16.296Z,16.10
2022-11-04T18:48:43.276Z,13.35
2022-11-04T18:51:12.499Z,12.27
2022-11-04T18:53:38.925Z,17.25
2022-11-04T18:56:07.463Z,15.18
2022-11-04T18:58:35.088Z,18.77
2022-11-04T19:01:29.386Z,14.18
2022-11-04T19:03:56.169Z,17.55
2022-11-04T19:06:25.578Z,17.48
2022-11-04T19:08:54.557Z,15.68
2022-11-04T19:11:23.447Z,17.98
2022-11-04T19:13:51.817Z,16.23
2022-11-04T19:16:18.511Z,18.27
2022-11-04T19:18:47.607Z,19.48
2022-11-04T19:21:13.989Z,17.40
2022-11-04T19:23:40.458Z,17.15
2022-11-04T19:26:09.324Z,15.63
2022-11-04T19:28:48.026Z,16.38
2022-11-04T19:31:36.210Z,18.88
2022-11-04T19:34:06.980Z,18.83
2022-11-04T19:36:35.474Z,20.10
2022-11-04T19:39:02.089Z,20.75
2022-11-04T19:41:47.210Z,20.70
2022-11-04T19:44:15.911Z,23.60
2022-11-04T19:46:42.324Z,20.25
2022-11-04T19:49:09.352Z,21.13
2022-11-04T19:51:36.786Z,22.13
2022-11-04T19:54:03.756Z,25.40
2022-11-04T19:56:31.304Z,19.65
2022-11-04T19:59:00.489Z,19.88
2022-11-04T20:01:31.715Z,22.38
2022-11-04T20:03:58.641Z,27.80
2022-11-04T20:06:25.130Z,26.90
2022-11-04T20:08:52.871Z,25.80
2022-11-04T20:11:20.448Z,25.70
2022-11-04T20:13:49.921Z,23.83
2022-11-04T20:16:18.528Z,25.02
2022-11-04T20:18:47.204Z,25.48
2022-11-04T20:21:15.114Z,20.88
2022-11-04T20:23:41.897Z,26.17
2022-11-04T20:26:17.585Z,25.73
2022-11-04T20:28:47.367Z,20.25
2022-11-04T20:31:23.275Z,28.17
2022-11-04T20:33:50.553Z,25.52
2022-11-04T20:36:18.958Z,23.88
2022-11-04T20:38:47.354Z,25.08
2022-11-04T20:41:18.545Z,22.77
2022-11-04T20:43:46.628Z,22.10
2022-11-04T20:46:16.014Z,25.17
2022-11-04T20:48:42.653Z,23.85
2022-11-04T20:51:11.117Z,27.52
2022-11-04T20:53:38.131Z,26.50
2022-11-04T20:56:09.259Z,25.38
2022-11-04T20:58:37.681Z,27.10
2022-11-04T21:01:06.252Z,27.05
2022-11-04T21:03:32.646Z,21.58
2022-11-04T21:05:59.052Z,25.48
2022-11-04T21:08:25.597Z,23.98
2022-11-04T21:10:56.098Z,24.75
2022-11-04T21:13:22.842Z,29.77
2022-11-04T21:15:53.389Z,27.75
2022-11-04T21:18:19.972Z,27.65
2022-11-04T21:20:46.748Z,31.63
2022-11-04T21:23:14.083Z,30.30
2022-11-04T21:25:42.686Z,29.88
2022-11-04T21:28:09.612Z,27.73
2022-11-04T21:30:38.250Z,27.58
2022-11-04T21:33:05.403Z,29.10
2022-11-04T21:35:35.008Z,28.02
2022-11-04T21:38:01.869Z,28.30
2022-11-04T21:40:28.393Z,25.00
2022-11-04T21:42:54.762Z,29.00
2022-11-04T21:45:21.132Z,24.48
2022-11-04T21:47:47.529Z,25.75
2022-11-04T21:50:17.837Z,24.23
2022-11-04T21:52:44.983Z,22.75
2022-11-04T21:55:11.964Z,25.98
2022-11-04T21:57:38.868Z,26.00
2022-11-04T22:00:06.849Z,26.05
2022-11-04T22:02:38.672Z,26.45
2022-11-04T22:05:06.418Z,24.50
2022-11-04T22:07:51.168Z,25.48
2022-11-04T22:10:17.649Z,29.05
2022-11-04T22:12:48.553Z,26.73
2022-11-04T22:15:36.700Z,29.92
2022-11-04T22:18:03.453Z,26.15
2022-11-04T22:20:29.981Z,25.77
2022-11-04T22:22:56.437Z,26.45
2022-11-04T22:25:22.890Z,29.70
2022-11-04T22:27:49.290Z,30.35
2022-11-04T22:30:15.670Z,29.77
2022-11-04T22:32:42.070Z,32.42
2022-11-04T22:35:08.795Z,29.05
2022-11-04T22:37:35.244Z,26.80
2022-11-04T22:40:01.673Z,27.92
2022-11-04T22:42:28.077Z,25.08
2022-11-04T22:44:54.451Z,26.20
2022-11-04T22:47:20.841Z,25.00
2022-11-04T22:49:47.238Z,21.05
2022-11-04T22:52:13.812Z,22.95
2022-11-04T22:54:40.395Z,29.73
2022-11-04T22:57:06.836Z,27.52
2022-11-04T22:59:33.293Z,23.52
2022-11-04T23:01:59.754Z,29.17
2022-11-04T23:04:26.256Z,26.92
2022-11-04T23:06:52.640Z,26.90
2022-11-04T23:09:19.243Z,28.35
2022-11-04T23:12:04.334Z,24.15
2022-11-04T23:14:42.831Z,27.52
2022-11-04T23:17:35.161Z,24.70
2022-11-04T23:20:01.770Z,28.35
2022-11-04T23:22:46.430Z,23.70
2022-11-04T23:25:13.565Z,25.20
2022-11-04T23:28:05.533Z,23.90
2022-11-04T23:30:37.641Z,25.80
2022-11-04T23:33:06.289Z,25.05
2022-11-04T23:35:54.300Z,30.48
2022-11-04T23:38:21.089Z,27.77
2022-11-04T23:41:08.125Z,30.75
2022-11-04T23:43:35.306Z,24.30
2022-11-04T23:46:20.908Z,26.13
2022-11-04T23:49:05.957Z,26.60
2022-11-04T23:51:50.923Z,27.95
2022-11-04T23:54:35.924Z,27.05
2022-11-04T23:57:21.199Z,28.17
